Time;durP1;ratioP1;P1;durP2;ratioP2;P2;SDS_P1;SDS_P2;PMS_P1;PMS_P2;Temp;Humidity;BMP_temperature;BMP_pressure;BME280_temperature;BME280_humidity;BME280_pressure;Samples;Min_cycle;Max_cycle;Signal;HPM_P1;HPM_P2
2024/01/23 00:02:02;;;;;;;25.63;3.95;;;6.50;99.90;;;;;;5092959;28;20082;-33
2024/01/23 00:04:28;;;;;;;16.60;3.38;;;6.60;99.90;;;;;;5090238;28;20040;-33
2024/01/23 00:06:54;;;;;;;15.40;3.63;;;6.70;99.90;;;;;;5092160;28;20119;-33
2024/01/23 00:09:20;;;;;;;13.02;3.80;;;6.80;99.90;;;;;;5084641;28;20058;-33
2024/01/23 00:11:45;;;;;;;12.57;3.13;;;6.80;99.90;;;;;;5077529;28;20036;-33
2024/01/23 00:14:11;;;;;;;15.65;3.38;;;6.80;99.90;;;;;;5087069;28;20062;-33
2024/01/23 00:16:37;;;;;;;16.23;3.55;;;6.90;99.90;;;;;;5078625;28;20036;-33
2024/01/23 00:19:03;;;;;;;12.38;3.30;;;6.90;99.90;;;;;;5081537;28;20036;-33
2024/01/23 00:21:29;;;;;;;10.00;3.55;;;7.00;99.90;;;;;;5077924;28;20055;-33
2024/01/23 00:23:55;;;;;;;14.50;3.92;;;7.00;99.90;;;;;;5091814;28;20093;-33
2024/01/23 00:26:21;;;;;;;17.25;3.72;;;7.10;99.90;;;;;;5091830;28;20036;-34
2024/01/23 00:28:47;;;;;;;20.50;4.13;;;7.00;99.90;;;;;;5085816;28;20064;-33
2024/01/23 00:31:13;;;;;;;11.40;3.55;;;7.00;99.90;;;;;;5078297;28;20051;-33
2024/01/23 00:33:38;;;;;;;14.77;3.20;;;7.00;99.90;;;;;;5074133;28;20037;-33
2024/01/23 00:36:05;;;;;;;13.65;3.00;;;7.00;99.90;;;;;;5073415;28;20090;-33
2024/01/23 00:38:31;;;;;;;14.35;4.03;;;6.90;99.90;;;;;;5077839;28;20415;-35
2024/01/23 00:40:57;;;;;;;14.27;3.58;;;6.80;99.90;;;;;;5074470;28;20044;-33
2024/01/23 00:43:22;;;;;;;14.93;3.08;;;6.80;99.90;;;;;;5076094;28;20047;-33
2024/01/23 00:45:48;;;;;;;13.52;3.55;;;6.80;99.90;;;;;;5080650;28;20071;-33
2024/01/23 00:48:14;;;;;;;14.30;3.05;;;6.70;99.90;;;;;;5075460;28;20051;-33
2024/01/23 00:50:40;;;;;;;12.32;3.30;;;6.70;99.90;;;;;;5078218;28;20387;-35
2024/01/23 00:53:05;;;;;;;13.95;3.40;;;6.70;99.90;;;;;;5075524;28;20123;-35
2024/01/23 00:55:31;;;;;;;11.93;2.83;;;6.70;99.90;;;;;;5075942;28;20045;-34
2024/01/23 00:57:57;;;;;;;17.67;3.13;;;6.70;99.90;;;;;;5085002;28;20044;-34
2024/01/23 01:00:23;;;;;;;12.02;3.25;;;6.70;99.90;;;;;;5094712;28;20032;-34
2024/01/23 01:02:48;;;;;;;13.88;3.90;;;6.70;99.90;;;;;;5090350;28;20098;-34
2024/01/23 01:05:14;;;;;;;13.57;3.17;;;6.70;99.90;;;;;;5082661;28;20470;-34
2024/01/23 01:07:40;;;;;;;10.68;3.35;;;6.70;99.90;;;;;;5073368;28;20115;-35
2024/01/23 01:10:06;;;;;;;15.07;3.45;;;6.70;99.90;;;;;;5075999;28;20040;-34
2024/01/23 01:12:35;;;;;;;15.88;3.35;;;6.70;99.90;;;;;;5075260;28;20149;-34
2024/01/23 01:15:02;;;;;;;15.52;3.42;;;6.60;99.90;;;;;;5079384;28;20414;-33
2024/01/23 01:17:27;;;;;;;11.40;3.90;;;6.60;99.90;;;;;;5077095;28;20421;-34
2024/01/23 01:19:54;;;;;;;14.27;3.00;;;6.60;99.90;;;;;;5077785;28;20031;-34
2024/01/23 01:22:20;;;;;;;14.55;2.70;;;6.50;99.90;;;;;;5093343;28;20184;-33
2024/01/23 01:24:46;;;;;;;12.20;3.30;;;6.60;99.90;;;;;;5095292;28;20115;-33
2024/01/23 01:27:12;;;;;;;16.42;3.03;;;6.60;99.90;;;;;;5095293;28;20047;-33
2024/01/23 01:29:38;;;;;;;11.80;2.97;;;6.60;99.90;;;;;;5094970;28;20036;-33
2024/01/23 01:32:04;;;;;;;17.00;3.60;;;6.60;99.90;;;;;;5094878;28;20387;-32
2024/01/23 01:34:31;;;;;;;13.55;3.38;;;6.70;99.90;;;;;;5094417;28;20036;-32
2024/01/23 01:36:57;;;;;;;16.17;3.15;;;6.70;99.90;;;;;;5079973;28;20064;-32
2024/01/23 01:39:23;;;;;;;13.07;2.90;;;6.70;99.90;;;;;;5074458;28;20045;-32
2024/01/23 01:41:56;;;;;;;14.05;3.05;;;6.70;99.90;;;;;;5073468;28;20040;-32
2024/01/23 01:44:21;;;;;;;14.52;2.50;;;6.80;99.90;;;;;;5074442;28;20040;-32
2024/01/23 01:46:49;;;;;;;13.27;3.42;;;6.80;99.90;;;;;;5086429;28;20032;-34
2024/01/23 01:49:18;;;;;;;14.13;3.65;;;6.80;99.90;;;;;;5085421;28;20561;-34
2024/01/23 01:51:44;;;;;;;10.18;2.85;;;6.80;99.90;;;;;;5084278;28;20089;-32
2024/01/23 01:54:11;;;;;;;15.35;3.58;;;6.80;99.90;;;;;;5074051;28;20048;-35
2024/01/23 01:56:38;;;;;;;13.68;3.30;;;6.80;99.90;;;;;;5086752;28;20119;-35
2024/01/23 01:59:04;;;;;;;14.43;2.80;;;6.80;99.90;;;;;;5082639;28;20144;-35
2024/01/23 02:01:30;;;;;;;14.77;3.53;;;6.80;99.90;;;;;;5083578;28;20495;-35
2024/01/23 02:03:56;;;;;;;15.80;3.72;;;6.80;99.90;;;;;;5091055;28;20513;-35
2024/01/23 02:06:23;;;;;;;11.70;3.38;;;6.70;99.90;;;;;;5076416;28;20474;-34
2024/01/23 02:08:50;;;;;;;16.13;3.58;;;6.70;99.90;;;;;;5074522;28;20040;-35
2024/01/23 02:11:16;;;;;;;13.30;3.92;;;6.70;99.90;;;;;;5085441;28;20036;-35
2024/01/23 02:13:42;;;;;;;15.70;3.88;;;6.60;99.90;;;;;;5086503;28;20067;-35
2024/01/23 02:16:08;;;;;;;14.23;3.22;;;6.60;99.90;;;;;;5088478;28;20494;-35
2024/01/23 02:18:34;;;;;;;16.13;3.28;;;6.50;99.90;;;;;;5076059;28;20050;-35
2024/01/23 02:21:00;;;;;;;15.93;3.55;;;6.50;99.90;;;;;;5087590;28;20032;-35
2024/01/23 02:23:30;;;;;;;14.63;3.80;;;6.50;99.90;;;;;;5087213;28;20487;-35
2024/01/23 02:25:56;;;;;;;17.98;3.42;;;6.40;99.90;;;;;;5088149;28;20040;-35
2024/01/23 02:28:22;;;;;;;12.70;3.42;;;6.40;99.90;;;;;;5068816;28;21052;-36
2024/01/23 02:30:48;;;;;;;15.55;3.22;;;6.40;99.90;;;;;;5086770;28;20044;-35
2024/01/23 02:33:14;;;;;;;16.90;4.95;;;6.40;99.90;;;;;;5084357;28;20040;-35
2024/01/23 02:35:40;;;;;;;19.38;3.15;;;6.30;99.90;;;;;;5063507;28;20079;-35
2024/01/23 02:38:08;;;;;;;18.55;4.35;;;6.30;99.90;;;;;;5092107;28;20044;-36
2024/01/23 02:40:34;;;;;;;19.88;3.92;;;6.30;99.90;;;;;;5085585;28;20072;-35
2024/01/23 02:43:00;;;;;;;16.77;3.38;;;6.30;99.90;;;;;;5070526;28;20041;-35
2024/01/23 02:45:26;;;;;;;19.23;3.90;;;6.30;99.90;;;;;;5066361;28;20479;-34
2024/01/23 02:47:52;;;;;;;17.63;4.22;;;6.30;99.90;;;;;;5083453;28;20040;-37
2024/01/23 02:50:18;;;;;;;19.05;4.10;;;6.20;99.90;;;;;;5058466;28;20040;-37
2024/01/23 02:52:44;;;;;;;11.77;3.33;;;6.20;99.90;;;;;;5082947;28;20036;-32
2024/01/23 02:55:10;;;;;;;15.35;3.35;;;6.20;99.90;;;;;;5083874;28;20111;-36
2024/01/23 02:57:36;;;;;;;12.88;3.15;;;6.20;99.90;;;;;;5083357;28;20032;-35
2024/01/23 03:00:01;;;;;;;15.93;3.55;;;6.20;99.90;;;;;;5059456;28;20131;-37
2024/01/23 03:02:28;;;;;;;13.80;3.92;;;6.10;99.90;;;;;;5044637;28;20057;-37
2024/01/23 03:04:54;;;;;;;13.68;3.20;;;6.20;99.90;;;;;;5072441;28;20436;-36
2024/01/23 03:07:20;;;;;;;16.75;4.03;;;6.20;99.90;;;;;;5072804;28;20036;-36
2024/01/23 03:09:46;;;;;;;17.08;3.83;;;6.20;99.90;;;;;;5060002;28;20041;-36
2024/01/23 03:12:22;;;;;;;17.65;3.47;;;6.10;99.90;;;;;;5076995;28;20040;-37
2024/01/23 03:14:49;;;;;;;16.15;3.72;;;6.20;99.90;;;;;;5064316;28;20136;-36
2024/01/23 03:17:17;;;;;;;8.45;2.40;;;6.20;99.90;;;;;;5081372;28;20052;-37
2024/01/23 03:19:43;;;;;;;12.82;3.33;;;6.20;99.90;;;;;;5073389;28;20085;-37
2024/01/23 03:22:09;;;;;;;12.32;2.70;;;6.20;99.90;;;;;;5079292;28;20050;-35
2024/01/23 03:24:39;;;;;;;15.73;3.78;;;6.30;99.90;;;;;;5068801;28;20036;-36
2024/01/23 03:27:06;;;;;;;16.30;3.60;;;6.30;99.90;;;;;;5065831;28;20487;-33
2024/01/23 03:29:45;;;;;;;15.82;3.60;;;6.40;99.90;;;;;;5077797;28;20043;-32
2024/01/23 03:32:11;;;;;;;16.27;3.90;;;6.30;99.90;;;;;;5076821;28;20100;-32
2024/01/23 03:34:38;;;;;;;14.73;3.42;;;6.40;99.90;;;;;;5076906;28;20040;-32
2024/01/23 03:37:05;;;;;;;12.20;3.25;;;6.40;99.90;;;;;;5076524;28;20068;-32
2024/01/23 03:39:31;;;;;;;17.45;4.20;;;6.40;99.90;;;;;;5077112;28;20499;-36
2024/01/23 03:41:57;;;;;;;17.10;4.50;;;6.50;99.90;;;;;;5076515;28;20045;-32
2024/01/23 03:44:24;;;;;;;16.02;3.97;;;6.50;99.90;;;;;;5058816;28;20042;-32
2024/01/23 03:46:50;;;;;;;9.90;3.00;;;6.50;99.90;;;;;;5076999;28;20045;-32
2024/01/23 03:49:17;;;;;;;19.95;3.92;;;6.50;99.90;;;;;;5058723;28;20091;-33
2024/01/23 03:51:44;;;;;;;18.33;3.60;;;6.50;99.90;;;;;;5076615;28;20081;-32
2024/01/23 03:54:10;;;;;;;14.00;4.15;;;6.50;99.90;;;;;;5077207;28;20518;-32
2024/01/23 03:56:36;;;;;;;17.13;4.85;;;6.60;99.90;;;;;;5076482;28;20041;-32
2024/01/23 03:59:02;;;;;;;17.23;4.63;;;6.60;99.90;;;;;;5090892;28;20096;-34
2024/01/23 04:01:27;;;;;;;13.65;3.47;;;6.60;99.90;;;;;;5089791;28;20044;-34
2024/01/23 04:03:53;;;;;;;19.00;4.03;;;6.60;99.90;;;;;;5094692;28;20024;-33
2024/01/23 04:06:19;;;;;;;20.15;4.30;;;6.60;99.90;;;;;;5079947;28;20047;-32
2024/01/23 04:08:45;;;;;;;21.45;4.32;;;6.60;99.90;;;;;;5058840;28;20040;-35
2024/01/23 04:11:11;;;;;;;21.10;3.72;;;6.60;99.90;;;;;;5074668;28;20090;-35
2024/01/23 04:13:37;;;;;;;19.27;5.00;;;6.70;99.90;;;;;;5056544;28;20082;-32
2024/01/23 04:16:05;;;;;;;16.50;4.18;;;6.70;99.90;;;;;;5055970;28;20099;-35
2024/01/23 04:18:31;;;;;;;21.63;5.00;;;6.60;99.90;;;;;;5075348;28;20041;-33
2024/01/23 04:20:58;;;;;;;16.73;3.80;;;6.70;99.90;;;;;;5091393;28;20090;-35
2024/01/23 04:23:24;;;;;;;21.38;3.95;;;6.70;99.90;;;;;;5094057;28;20040;-32
2024/01/23 04:25:49;;;;;;;20.05;4.78;;;6.70;99.90;;;;;;5095916;28;20123;-32
2024/01/23 04:28:15;;;;;;;19.67;4.22;;;6.80;99.90;;;;;;5096114;28;20119;-32
2024/01/23 04:30:42;;;;;;;20.73;4.68;;;6.80;99.90;;;;;;5077539;28;20044;-32
2024/01/23 04:33:08;;;;;;;23.50;6.70;;;6.80;99.90;;;;;;5095666;28;20044;-34
2024/01/23 04:35:34;;;;;;;16.45;4.13;;;6.80;99.90;;;;;;5091562;28;20042;-34
2024/01/23 04:38:00;;;;;;;18.55;4.45;;;6.80;99.90;;;;;;5087592;28;20119;-34
2024/01/23 04:40:26;;;;;;;14.55;3.88;;;6.80;99.90;;;;;;5077288;28;20040;-34
2024/01/23 04:42:52;;;;;;;18.70;4.47;;;6.80;99.90;;;;;;5089002;28;20040;-34
2024/01/23 04:45:18;;;;;;;16.75;4.40;;;6.70;99.90;;;;;;5094087;28;20391;-34
2024/01/23 04:47:43;;;;;;;23.52;4.97;;;6.70;99.90;;;;;;5085055;28;20379;-34
2024/01/23 04:50:10;;;;;;;19.80;4.65;;;6.70;99.90;;;;;;5083058;28;20039;-34
2024/01/23 04:52:35;;;;;;;24.08;4.95;;;6.70;99.90;;;;;;5089257;28;20114;-35
2024/01/23 04:55:02;;;;;;;16.63;4.25;;;6.70;99.90;;;;;;5089491;28;20094;-34
2024/01/23 04:57:31;;;;;;;17.40;4.55;;;6.70;99.90;;;;;;5087023;28;20475;-34
2024/01/23 05:00:04;;;;;;;19.05;4.90;;;6.60;99.90;;;;;;5088270;28;20055;-34
2024/01/23 05:02:30;;;;;;;14.77;3.80;;;6.60;99.90;;;;;;5090889;28;20048;-34
2024/01/23 05:04:56;;;;;;;19.00;4.43;;;6.60;99.90;;;;;;5090885;28;20043;-34
2024/01/23 05:07:22;;;;;;;20.52;5.30;;;6.70;99.90;;;;;;5091216;28;20115;-34
2024/01/23 05:09:48;;;;;;;15.05;4.13;;;6.70;99.90;;;;;;5088815;28;20032;-34
2024/01/23 05:12:14;;;;;;;17.85;5.03;;;6.70;99.90;;;;;;5091759;28;20040;-34
2024/01/23 05:14:39;;;;;;;20.75;3.95;;;6.70;99.90;;;;;;5086790;28;20063;-34
2024/01/23 05:17:05;;;;;;;18.08;4.63;;;6.70;99.90;;;;;;5068366;28;20043;-34
2024/01/23 05:19:31;;;;;;;18.92;5.93;;;6.70;99.90;;;;;;5085470;28;20502;-34
2024/01/23 05:21:57;;;;;;;18.58;4.53;;;6.70;99.90;;;;;;5082936;28;20130;-33
2024/01/23 05:24:25;;;;;;;15.25;4.05;;;6.70;99.90;;;;;;5087728;28;20035;-34
2024/01/23 05:26:50;;;;;;;16.70;3.92;;;6.70;99.90;;;;;;5064663;28;20156;-34
2024/01/23 05:29:16;;;;;;;19.02;4.57;;;6.70;99.90;;;;;;5088787;28;20473;-34
2024/01/23 05:31:42;;;;;;;19.10;6.20;;;6.70;99.90;;;;;;5091285;28;20032;-33
2024/01/23 05:34:08;;;;;;;17.27;4.68;;;6.80;99.90;;;;;;5075214;28;20032;-34
2024/01/23 05:36:33;;;;;;;20.08;4.22;;;6.70;99.90;;;;;;5093354;28;20113;-34
2024/01/23 05:38:59;;;;;;;18.48;4.10;;;6.70;99.90;;;;;;5081445;28;20045;-34
2024/01/23 05:41:25;;;;;;;24.23;4.72;;;6.70;99.90;;;;;;5085596;28;20087;-34
2024/01/23 05:43:51;;;;;;;21.80;5.38;;;6.70;99.90;;;;;;5089913;28;20499;-34
2024/01/23 05:46:17;;;;;;;17.90;4.60;;;6.70;99.90;;;;;;5085716;28;20176;-34
2024/01/23 05:48:43;;;;;;;28.83;5.22;;;6.70;99.90;;;;;;5070206;28;20115;-34
2024/01/23 05:51:09;;;;;;;16.67;5.15;;;6.60;99.90;;;;;;5084893;28;20063;-34
2024/01/23 05:53:36;;;;;;;14.48;4.72;;;6.60;99.90;;;;;;5071005;28;20044;-34
2024/01/23 05:56:02;;;;;;;20.52;5.32;;;6.60;99.90;;;;;;5083467;28;20047;-35
2024/01/23 05:58:27;;;;;;;28.92;4.47;;;6.60;99.90;;;;;;5084976;28;20056;-33
2024/01/23 06:00:53;;;;;;;21.48;4.35;;;6.60;99.90;;;;;;5093457;28;20040;-32
2024/01/23 06:03:19;;;;;;;23.02;5.53;;;6.70;99.90;;;;;;5093868;28;20479;-34
2024/01/23 06:05:45;;;;;;;21.02;5.32;;;6.70;99.90;;;;;;5093229;28;20040;-32
2024/01/23 06:08:12;;;;;;;18.60;5.28;;;6.70;99.90;;;;;;5073797;28;20036;-34
2024/01/23 06:10:37;;;;;;;22.33;4.30;;;6.70;99.90;;;;;;5081259;28;20053;-32
2024/01/23 06:13:03;;;;;;;16.13;4.45;;;6.70;99.90;;;;;;5035870;28;20086;-32
2024/01/23 06:15:29;;;;;;;21.92;5.22;;;6.70;99.90;;;;;;5053204;28;20048;-32
2024/01/23 06:17:55;;;;;;;21.33;4.57;;;6.70;99.90;;;;;;5053904;28;20507;-32
2024/01/23 06:20:20;;;;;;;23.20;5.10;;;6.80;99.90;;;;;;5053218;28;20045;-32
2024/01/23 06:22:46;;;;;;;20.05;5.13;;;6.80;99.90;;;;;;5053218;28;20041;-32
2024/01/23 06:25:17;;;;;;;19.73;4.93;;;6.70;99.90;;;;;;5053305;28;20041;-32
2024/01/23 06:27:43;;;;;;;21.10;4.82;;;6.80;99.90;;;;;;5053647;28;20434;-32
2024/01/23 06:30:11;;;;;;;25.95;5.63;;;6.80;99.90;;;;;;5053416;28;20037;-32
2024/01/23 06:32:37;;;;;;;22.00;6.60;;;6.80;99.90;;;;;;5035347;28;20048;-32
2024/01/23 06:35:04;;;;;;;22.25;4.65;;;6.80;99.90;;;;;;5053071;28;20083;-32
2024/01/23 06:37:30;;;;;;;20.67;5.22;;;6.80;99.90;;;;;;5053060;28;20061;-32
2024/01/23 06:39:56;;;;;;;21.73;6.07;;;6.80;99.90;;;;;;5052791;28;20051;-32
2024/01/23 06:42:22;;;;;;;24.33;5.60;;;6.90;99.90;;;;;;5053124;28;20037;-32
2024/01/23 06:44:47;;;;;;;22.17;5.20;;;6.80;99.90;;;;;;5053189;28;20041;-33
2024/01/23 06:47:13;;;;;;;24.02;5.30;;;6.90;99.90;;;;;;5052675;28;20467;-33
2024/01/23 06:49:39;;;;;;;26.95;7.38;;;6.90;99.90;;;;;;5053287;28;20097;-33
2024/01/23 06:52:05;;;;;;;23.23;5.80;;;6.90;99.90;;;;;;5035953;28;20079;-33
2024/01/23 06:54:31;;;;;;;23.17;4.97;;;6.90;99.90;;;;;;5057405;28;20093;-35
2024/01/23 06:56:56;;;;;;;21.33;4.63;;;6.90;99.90;;;;;;5083157;28;20490;-35
2024/01/23 06:59:22;;;;;;;20.75;5.15;;;6.90;99.90;;;;;;5080290;28;20067;-35
2024/01/23 07:01:48;;;;;;;26.45;5.32;;;6.90;99.90;;;;;;5088871;28;20041;-35
2024/01/23 07:04:13;;;;;;;18.00;4.32;;;6.90;99.90;;;;;;5081669;28;20036;-35
2024/01/23 07:06:39;;;;;;;22.60;5.13;;;6.90;99.90;;;;;;5085608;28;20063;-35
2024/01/23 07:09:05;;;;;;;25.02;5.15;;;6.90;99.90;;;;;;5088531;28;20510;-35
2024/01/23 07:11:31;;;;;;;24.77;5.40;;;6.90;99.90;;;;;;5069485;28;20072;-34
2024/01/23 07:13:56;;;;;;;22.92;5.28;;;6.80;99.90;;;;;;5091519;28;20100;-35
2024/01/23 07:16:22;;;;;;;19.27;4.97;;;6.90;99.90;;;;;;5063338;28;20189;-34
2024/01/23 07:18:48;;;;;;;25.52;4.85;;;6.90;99.90;;;;;;5091884;28;20040;-35
2024/01/23 07:21:14;;;;;;;22.23;5.30;;;6.90;99.90;;;;;;5070341;28;20086;-35
2024/01/23 07:23:39;;;;;;;25.15;6.47;;;6.80;99.90;;;;;;5070112;28;20474;-35
2024/01/23 07:26:05;;;;;;;25.48;6.03;;;6.80;99.90;;;;;;5083657;28;20044;-35
2024/01/23 07:28:31;;;;;;;19.35;4.68;;;6.80;99.90;;;;;;5068060;28;20039;-33
2024/01/23 07:30:57;;;;;;;20.15;5.35;;;6.80;99.90;;;;;;5096221;28;20062;-33
2024/01/23 07:33:22;;;;;;;23.52;5.10;;;6.80;99.90;;;;;;5077875;28;20138;-33
2024/01/23 07:35:50;;;;;;;20.95;4.63;;;6.70;99.90;;;;;;5095833;28;20040;-33
2024/01/23 07:38:16;;;;;;;21.65;5.35;;;6.80;99.90;;;;;;5089122;28;20568;-34
2024/01/23 07:40:42;;;;;;;24.13;5.10;;;6.70;99.90;;;;;;5083949;28;20502;-35
2024/01/23 07:43:07;;;;;;;27.17;5.82;;;6.70;99.90;;;;;;5087468;28;20040;-34
2024/01/23 07:45:33;;;;;;;25.50;6.30;;;6.70;99.90;;;;;;5085186;28;20075;-35
2024/01/23 07:47:59;;;;;;;22.60;4.85;;;6.60;99.90;;;;;;5083051;28;20092;-34
2024/01/23 07:50:27;;;;;;;27.60;5.38;;;6.60;99.90;;;;;;5086682;28;20032;-34
2024/01/23 07:52:53;;;;;;;20.42;5.10;;;6.60;99.90;;;;;;5072111;28;20098;-35
2024/01/23 07:55:19;;;;;;;23.10;5.40;;;6.50;99.90;;;;;;5087291;28;20399;-35
2024/01/23 07:57:45;;;;;;;26.88;5.82;;;6.50;99.90;;;;;;5084005;28;20037;-35
2024/01/23 08:00:17;;;;;;;24.40;5.03;;;6.40;99.90;;;;;;5090763;28;20032;-35
2024/01/23 08:02:42;;;;;;;20.83;4.78;;;6.40;99.90;;;;;;5086323;28;20203;-35
2024/01/23 08:05:08;;;;;;;26.77;4.68;;;6.40;99.90;;;;;;5093017;28;20085;-35
2024/01/23 08:07:34;;;;;;;27.63;6.05;;;6.40;99.90;;;;;;5083983;28;20043;-35
2024/01/23 08:10:00;;;;;;;22.17;5.30;;;6.30;99.90;;;;;;5087172;28;20041;-35
2024/01/23 08:12:26;;;;;;;21.45;5.07;;;6.30;99.90;;;;;;5089113;28;20048;-35
2024/01/23 08:14:52;;;;;;;21.95;4.13;;;6.30;99.90;;;;;;5079302;28;20457;-35
2024/01/23 08:17:19;;;;;;;27.33;5.25;;;6.30;99.90;;;;;;5085521;28;20076;-35
2024/01/23 08:19:45;;;;;;;21.27;5.53;;;6.30;99.90;;;;;;5089810;28;20036;-35
2024/01/23 08:22:11;;;;;;;20.80;5.38;;;6.30;99.90;;;;;;5088204;28;20088;-35
2024/01/23 08:24:37;;;;;;;20.08;7.53;;;6.30;99.90;;;;;;5087158;28;20064;-35
2024/01/23 08:27:04;;;;;;;24.15;7.22;;;6.30;99.90;;;;;;5091412;28;20483;-35
2024/01/23 08:29:29;;;;;;;24.20;6.20;;;6.20;99.90;;;;;;5080555;28;20446;-35
2024/01/23 08:31:55;;;;;;;22.67;5.95;;;6.20;99.90;;;;;;5091288;28;20131;-35
2024/01/23 08:34:22;;;;;;;26.00;6.45;;;6.30;99.90;;;;;;5087830;28;20036;-34
2024/01/23 08:36:48;;;;;;;27.52;9.65;;;6.30;99.90;;;;;;5072134;28;20048;-35
2024/01/23 08:39:15;;;;;;;27.40;7.00;;;6.30;99.90;;;;;;5068796;28;20044;-35
2024/01/23 08:41:41;;;;;;;23.45;5.07;;;6.30;99.90;;;;;;5085344;28;20089;-35
2024/01/23 08:44:07;;;;;;;26.92;6.43;;;6.40;99.90;;;;;;5089369;28;20452;-35
2024/01/23 08:46:33;;;;;;;22.55;6.68;;;6.50;99.90;;;;;;5087148;28;20040;-35
2024/01/23 08:48:59;;;;;;;27.92;8.48;;;6.60;99.90;;;;;;5083841;28;20394;-35
2024/01/23 08:51:26;;;;;;;25.00;6.10;;;6.80;99.90;;;;;;5087459;28;20147;-35
2024/01/23 08:53:52;;;;;;;22.80;6.53;;;6.90;99.90;;;;;;5092201;28;20048;-35
2024/01/23 08:56:20;;;;;;;23.98;5.20;;;7.00;99.90;;;;;;5088057;28;20036;-35
2024/01/23 08:58:47;;;;;;;28.05;9.38;;;7.10;99.90;;;;;;5088263;28;20552;-35
2024/01/23 09:01:13;;;;;;;23.48;6.38;;;7.20;99.90;;;;;;5087423;28;20041;-35
2024/01/23 09:03:39;;;;;;;28.83;5.75;;;7.30;99.90;;;;;;5089926;28;20028;-35
2024/01/23 09:06:05;;;;;;;16.25;5.07;;;7.40;99.90;;;;;;5088436;28;20124;-35
2024/01/23 09:08:31;;;;;;;23.02;4.75;;;7.40;99.90;;;;;;5087266;28;20549;-35
2024/01/23 09:10:57;;;;;;;18.98;6.00;;;7.40;99.90;;;;;;5089875;28;20119;-35
2024/01/23 09:13:22;;;;;;;21.17;4.72;;;7.30;99.90;;;;;;5067891;28;20048;-35
2024/01/23 09:15:48;;;;;;;19.23;4.97;;;7.20;99.90;;;;;;5086022;28;20461;-35
2024/01/23 09:18:14;;;;;;;21.17;5.72;;;7.20;99.90;;;;;;5088913;28;20050;-35
2024/01/23 09:20:40;;;;;;;20.45;4.85;;;7.20;99.90;;;;;;5089248;28;20040;-35
2024/01/23 09:23:06;;;;;;;21.25;5.20;;;7.10;99.90;;;;;;5078883;28;20044;-35
2024/01/23 09:25:31;;;;;;;20.63;5.22;;;7.20;99.90;;;;;;5084167;28;20085;-35
2024/01/23 09:27:57;;;;;;;22.52;5.15;;;7.20;99.90;;;;;;5089232;28;20036;-35
2024/01/23 09:30:23;;;;;;;17.92;5.35;;;7.20;99.90;;;;;;5086975;28;20039;-35
2024/01/23 09:32:49;;;;;;;19.52;5.10;;;7.40;99.90;;;;;;5066077;28;20375;-35
2024/01/23 09:35:14;;;;;;;27.80;6.50;;;7.60;99.90;;;;;;5088825;28;20510;-35
2024/01/23 09:37:40;;;;;;;28.38;7.45;;;7.90;99.90;;;;;;5068870;28;20094;-34
2024/01/23 09:40:10;;;;;;;27.77;7.78;;;8.30;99.90;;;;;;5085818;28;20044;-34
2024/01/23 09:42:41;;;;;;;28.73;8.65;;;8.80;99.90;;;;;;5080911;28;20036;-34
2024/01/23 09:45:18;;;;;;;29.65;7.70;;;9.10;99.90;;;;;;5090713;28;20035;-34
2024/01/23 09:47:48;;;;;;;25.27;7.95;;;9.50;99.90;;;;;;5083487;28;20036;-34
2024/01/23 09:50:16;;;;;;;23.90;5.65;;;9.60;99.90;;;;;;5092233;28;20040;-35
2024/01/23 09:52:45;;;;;;;21.08;5.05;;;9.80;99.90;;;;;;5066264;28;20067;-35
2024/01/23 09:55:11;;;;;;;20.33;4.60;;;10.00;99.90;;;;;;5080745;28;20043;-35
2024/01/23 09:57:42;;;;;;;22.17;5.28;;;10.40;99.90;;;;;;5081634;28;20537;-35
2024/01/23 10:00:11;;;;;;;20.13;5.30;;;10.40;99.90;;;;;;5065395;28;20388;-35
2024/01/23 10:02:41;;;;;;;18.45;4.53;;;10.50;99.90;;;;;;5087023;28;20040;-36
2024/01/23 10:05:12;;;;;;;25.83;6.82;;;10.80;99.90;;;;;;5090792;28;20431;-36
2024/01/23 10:07:39;;;;;;;21.35;5.50;;;10.90;99.90;;;;;;5085997;28;20119;-36
2024/01/23 10:10:14;;;;;;;23.90;5.40;;;11.00;99.90;;;;;;5091183;28;20089;-36
2024/01/23 10:12:46;;;;;;;20.88;5.82;;;11.10;99.90;;;;;;5084891;28;20089;-36
2024/01/23 10:15:16;;;;;;;16.65;4.85;;;11.00;99.90;;;;;;5082257;28;20059;-35
2024/01/23 10:17:44;;;;;;;22.50;6.15;;;10.80;99.90;;;;;;5089347;28;20047;-36
2024/01/23 10:20:10;;;;;;;27.08;9.40;;;11.00;99.90;;;;;;5074090;28;20459;-35
2024/01/23 10:22:36;;;;;;;24.48;8.05;;;11.10;99.90;;;;;;5087252;28;20047;-35
2024/01/23 10:25:05;;;;;;;28.85;10.18;;;11.20;99.90;;;;;;5077117;28;20041;-35
2024/01/23 10:27:31;;;;;;;16.05;6.95;;;11.30;99.90;;;;;;5083118;28;20062;-35
2024/01/23 10:29:57;;;;;;;23.60;7.47;;;11.10;99.90;;;;;;5082739;28;20406;-35
2024/01/23 10:32:23;;;;;;;21.10;5.78;;;11.10;99.90;;;;;;5089800;28;20384;-35
2024/01/23 10:34:54;;;;;;;28.65;9.40;;;10.80;99.90;;;;;;5088906;28;20459;-35
2024/01/23 10:37:21;;;;;;;20.48;7.43;;;10.60;99.90;;;;;;5067658;28;20508;-35
2024/01/23 10:39:49;;;;;;;18.33;5.28;;;10.60;99.90;;;;;;5087918;28;20043;-36
2024/01/23 10:42:18;;;;;;;18.55;5.90;;;10.60;99.90;;;;;;5080801;28;20471;-35
2024/01/23 10:44:49;;;;;;;14.52;4.65;;;10.60;99.90;;;;;;5086489;28;20029;-35
2024/01/23 10:47:16;;;;;;;22.10;6.70;;;10.60;99.90;;;;;;5086185;28;20028;-36
2024/01/23 10:49:43;;;;;;;29.58;10.20;;;10.70;99.90;;;;;;5068718;28;20046;-36
2024/01/23 10:52:18;;;;;;;19.38;6.70;;;10.90;99.90;;;;;;5070242;28;20127;-36
2024/01/23 10:54:46;;;;;;;17.05;5.15;;;11.10;99.90;;;;;;5088668;28;20043;-36
2024/01/23 10:57:22;;;;;;;20.02;5.43;;;11.20;99.90;;;;;;5084274;28;20048;-33
2024/01/23 10:59:49;;;;;;;25.42;5.43;;;11.20;99.90;;;;;;5079248;28;20117;-34
2024/01/23 11:02:37;;;;;;;21.25;6.13;;;11.20;99.90;;;;;;5090374;28;20040;-33
2024/01/23 11:05:04;;;;;;;19.70;4.57;;;11.60;99.90;;;;;;5088955;28;20430;-34
2024/01/23 11:08:09;;;;;;;21.08;5.20;;;12.10;99.90;;;;;;5086504;28;20036;-34
2024/01/23 11:11:07;;;;;;;20.60;5.82;;;12.30;99.90;;;;;;5078685;28;20041;-33
2024/01/23 11:13:38;;;;;;;20.17;5.35;;;12.60;99.90;;;;;;5076557;28;20055;-35
2024/01/23 11:16:06;;;;;;;15.63;4.90;;;12.70;99.90;;;;;;5071721;28;20163;-32
2024/01/23 11:18:35;;;;;;;22.05;4.65;;;12.40;99.90;;;;;;5072406;28;20496;-32
2024/01/23 11:21:04;;;;;;;19.27;4.28;;;11.80;99.90;;;;;;5072222;28;20039;-32
2024/01/23 11:23:33;;;;;;;17.98;5.63;;;11.70;99.90;;;;;;5071808;28;20050;-32
2024/01/23 11:26:02;;;;;;;26.42;6.18;;;11.80;99.90;;;;;;5072253;28;20511;-32
2024/01/23 11:28:32;;;;;;;15.15;4.72;;;11.60;99.90;;;;;;5071892;28;20139;-32
2024/01/23 11:31:08;;;;;;;19.33;5.60;;;11.30;99.90;;;;;;5071869;28;20453;-32
2024/01/23 11:33:34;;;;;;;20.65;4.20;;;11.10;99.90;;;;;;5071812;28;20044;-32
2024/01/23 11:36:23;;;;;;;22.55;5.03;;;10.80;99.90;;;;;;5071616;28;20040;-32
2024/01/23 11:38:55;;;;;;;18.92;4.38;;;10.70;99.90;;;;;;5072021;28;20395;-32
2024/01/23 11:41:27;;;;;;;17.00;4.78;;;10.40;99.90;;;;;;5073251;28;20036;-32
2024/01/23 11:44:05;;;;;;;20.35;4.30;;;10.50;99.90;;;;;;5075472;28;20045;-32
2024/01/23 11:46:34;;;;;;;23.83;4.78;;;10.30;99.90;;;;;;5075584;28;20476;-32
2024/01/23 11:49:00;;;;;;;15.50;4.15;;;10.30;99.90;;;;;;5075492;28;20458;-32
2024/01/23 11:51:28;;;;;;;17.30;4.65;;;10.20;99.90;;;;;;5075426;28;20120;-32
2024/01/23 11:53:59;;;;;;;22.40;5.57;;;10.20;99.90;;;;;;5075391;28;20044;-32
2024/01/23 11:56:29;;;;;;;19.60;6.85;;;10.00;99.90;;;;;;5075212;28;20052;-32
2024/01/23 11:58:58;;;;;;;24.70;5.88;;;9.80;99.90;;;;;;5075015;28;20040;-31
2024/01/23 12:01:29;;;;;;;24.80;5.45;;;9.60;99.90;;;;;;5074870;28;20044;-32
2024/01/23 12:03:55;;;;;;;20.52;5.82;;;9.60;99.90;;;;;;5075254;28;20041;-32
2024/01/23 12:06:22;;;;;;;21.52;5.22;;;9.70;99.90;;;;;;5075240;28;20047;-32
2024/01/23 12:08:48;;;;;;;17.63;4.95;;;9.70;99.90;;;;;;5075214;28;20436;-32
2024/01/23 12:11:15;;;;;;;18.17;4.05;;;9.80;99.90;;;;;;5075190;28;20079;-32
2024/01/23 12:13:48;;;;;;;17.67;4.50;;;9.80;99.90;;;;;;5074722;28;20059;-32
2024/01/23 12:16:15;;;;;;;17.55;4.40;;;9.90;99.90;;;;;;5075071;28;20487;-32
2024/01/23 12:18:41;;;;;;;20.80;4.80;;;9.80;99.90;;;;;;5075102;28;20039;-32
2024/01/23 12:21:08;;;;;;;20.98;4.53;;;9.60;99.90;;;;;;5074700;28;20040;-32
2024/01/23 12:23:34;;;;;;;19.98;5.38;;;9.50;99.90;;;;;;5074908;28;20041;-32
2024/01/23 12:26:01;;;;;;;25.27;6.03;;;9.70;99.90;;;;;;5075024;28;20037;-32
2024/01/23 12:28:30;;;;;;;18.50;6.07;;;10.10;99.90;;;;;;5074605;28;20085;-32
2024/01/23 12:30:56;;;;;;;17.88;5.22;;;10.20;99.90;;;;;;5074864;28;20092;-32
2024/01/23 12:33:22;;;;;;;21.83;6.18;;;10.60;99.90;;;;;;5056808;28;20178;-32
2024/01/23 12:35:49;;;;;;;22.17;7.93;;;11.10;99.90;;;;;;5073913;28;20136;-32
2024/01/23 12:38:19;;;;;;;26.92;8.63;;;11.60;99.90;;;;;;5072836;28;20060;-32
2024/01/23 12:40:46;;;;;;;23.13;6.63;;;12.30;99.90;;;;;;5074535;28;20037;-32
2024/01/23 12:43:12;;;;;;;34.63;11.95;;;12.30;99.90;;;;;;5074273;28;20040;-32
2024/01/23 12:45:38;;;;;;;18.80;6.78;;;12.60;99.90;;;;;;5074569;28;20368;-32